sensor_id;sensor_type;location;lat;lon;timestamp;pressure;altitude;pressure_sealevel;temperature;humidity
11971;BME280;6045;42.682;23.294;2022-10-19T00:00:30;95229.97;;;10.13;64.61
11971;BME280;6045;42.682;23.294;2022-10-19T00:02:57;95228.50;;;10.10;65.02
11971;BME280;6045;42.682;23.294;2022-10-19T00:05:24;95227.91;;;10.08;64.64
11971;BME280;6045;42.682;23.294;2022-10-19T00:07:51;95227.09;;;10.08;64.50
11971;BME280;6045;42.682;23.294;2022-10-19T00:10:18;95229.16;;;10.06;64.60
11971;BME280;6045;42.682;23.294;2022-10-19T00:12:45;95220.75;;;10.02;64.71
11971;BME280;6045;42.682;23.294;2022-10-19T00:15:12;95222.41;;;9.97;64.20
11971;BME280;6045;42.682;23.294;2022-10-19T00:17:40;95221.19;;;9.93;64.57
11971;BME280;6045;42.682;23.294;2022-10-19T00:20:08;95215.03;;;9.92;64.74
11971;BME280;6045;42.682;23.294;2022-10-19T00:22:35;95210.53;;;9.86;65.12
11971;BME280;6045;42.682;23.294;2022-10-19T00:25:02;95209.72;;;9.86;65.23
11971;BME280;6045;42.682;23.294;2022-10-19T00:27:28;95203.97;;;9.89;64.89
11971;BME280;6045;42.682;23.294;2022-10-19T00:29:55;95196.97;;;9.88;65.33
11971;BME280;6045;42.682;23.294;2022-10-19T00:32:22;95184.25;;;9.83;65.11
11971;BME280;6045;42.682;23.294;2022-10-19T00:34:50;95190.00;;;9.87;65.08
11971;BME280;6045;42.682;23.294;2022-10-19T00:37:17;95186.28;;;9.88;65.61
11971;BME280;6045;42.682;23.294;2022-10-19T00:39:44;95189.56;;;9.90;65.61
11971;BME280;6045;42.682;23.294;2022-10-19T00:42:11;95182.63;;;9.89;65.19
11971;BME280;6045;42.682;23.294;2022-10-19T00:44:58;95178.06;;;9.89;65.65
11971;BME280;6045;42.682;23.294;2022-10-19T00:47:26;95177.47;;;9.87;65.85
11971;BME280;6045;42.682;23.294;2022-10-19T00:49:56;95176.66;;;9.87;65.61
11971;BME280;6045;42.682;23.294;2022-10-19T00:52:24;95161.66;;;9.86;65.65
11971;BME280;6045;42.682;23.294;2022-10-19T00:54:53;95161.88;;;9.84;64.79
11971;BME280;6045;42.682;23.294;2022-10-19T00:57:21;95164.16;;;9.81;65.61
11971;BME280;6045;42.682;23.294;2022-10-19T00:59:50;95164.56;;;9.78;65.86
11971;BME280;6045;42.682;23.294;2022-10-19T01:02:17;95158.00;;;9.74;65.22
11971;BME280;6045;42.682;23.294;2022-10-19T01:04:47;95155.16;;;9.69;65.81
11971;BME280;6045;42.682;23.294;2022-10-19T01:07:17;95149.63;;;9.63;65.26
11971;BME280;6045;42.682;23.294;2022-10-19T01:09:44;95145.75;;;9.59;65.69
11971;BME280;6045;42.682;23.294;2022-10-19T01:12:21;95144.31;;;9.57;65.41
11971;BME280;6045;42.682;23.294;2022-10-19T01:15:07;95141.28;;;9.53;64.78
11971;BME280;6045;42.682;23.294;2022-10-19T01:17:46;95138.78;;;9.58;64.56
11971;BME280;6045;42.682;23.294;2022-10-19T01:20:40;95136.72;;;9.60;65.08
11971;BME280;6045;42.682;23.294;2022-10-19T01:26:19;95128.72;;;9.54;64.50
11971;BME280;6045;42.682;23.294;2022-10-19T01:28:55;95131.63;;;9.52;64.10
11971;BME280;6045;42.682;23.294;2022-10-19T01:31:35;95126.69;;;9.56;63.87
11971;BME280;6045;42.682;23.294;2022-10-19T01:34:06;95122.75;;;9.65;63.18
11971;BME280;6045;42.682;23.294;2022-10-19T01:36:41;95126.84;;;9.68;64.51
11971;BME280;6045;42.682;23.294;2022-10-19T01:39:12;95124.38;;;9.66;64.65
11971;BME280;6045;42.682;23.294;2022-10-19T01:41:49;95123.13;;;9.69;63.96
11971;BME280;6045;42.682;23.294;2022-10-19T01:44:26;95115.75;;;9.64;64.34
11971;BME280;6045;42.682;23.294;2022-10-19T01:46:58;95112.09;;;9.58;64.28
11971;BME280;6045;42.682;23.294;2022-10-19T01:49:32;95112.53;;;9.55;65.00
11971;BME280;6045;42.682;23.294;2022-10-19T01:52:02;95112.34;;;9.50;65.16
11971;BME280;6045;42.682;23.294;2022-10-19T01:54:35;95110.69;;;9.49;64.02
11971;BME280;6045;42.682;23.294;2022-10-19T01:57:05;95106.34;;;9.55;64.36
11971;BME280;6045;42.682;23.294;2022-10-19T01:59:35;95113.75;;;9.53;64.51
11971;BME280;6045;42.682;23.294;2022-10-19T02:02:05;95111.53;;;9.43;64.26
11971;BME280;6045;42.682;23.294;2022-10-19T02:04:33;95102.94;;;9.41;64.39
11971;BME280;6045;42.682;23.294;2022-10-19T02:07:01;95107.03;;;9.37;64.49
11971;BME280;6045;42.682;23.294;2022-10-19T02:09:29;95107.28;;;9.29;64.79
11971;BME280;6045;42.682;23.294;2022-10-19T02:11:58;95099.28;;;9.29;64.62
11971;BME280;6045;42.682;23.294;2022-10-19T02:14:30;95100.28;;;9.28;64.76
11971;BME280;6045;42.682;23.294;2022-10-19T02:17:01;95100.28;;;9.28;65.06
11971;BME280;6045;42.682;23.294;2022-10-19T02:19:31;95108.09;;;9.30;64.87
11971;BME280;6045;42.682;23.294;2022-10-19T02:21:58;95098.47;;;9.22;65.39
11971;BME280;6045;42.682;23.294;2022-10-19T02:24:25;95099.28;;;9.16;66.03
11971;BME280;6045;42.682;23.294;2022-10-19T02:26:52;95098.06;;;9.12;66.59
11971;BME280;6045;42.682;23.294;2022-10-19T02:29:20;95098.72;;;9.08;65.93
11971;BME280;6045;42.682;23.294;2022-10-19T02:31:48;95092.34;;;9.09;66.43
11971;BME280;6045;42.682;23.294;2022-10-19T02:34:15;95088.03;;;9.08;66.20
11971;BME280;6045;42.682;23.294;2022-10-19T02:36:43;95089.88;;;9.07;66.75
11971;BME280;6045;42.682;23.294;2022-10-19T02:39:10;95097.28;;;9.05;66.63
11971;BME280;6045;42.682;23.294;2022-10-19T02:41:41;95092.78;;;8.99;66.36
11971;BME280;6045;42.682;23.294;2022-10-19T02:44:18;95102.81;;;9.04;66.10
11971;BME280;6045;42.682;23.294;2022-10-19T02:46:50;95097.09;;;9.07;66.26
11971;BME280;6045;42.682;23.294;2022-10-19T02:49:20;95099.53;;;9.08;66.34
11971;BME280;6045;42.682;23.294;2022-10-19T02:51:58;95099.56;;;9.02;66.05
11971;BME280;6045;42.682;23.294;2022-10-19T02:54:27;95088.47;;;8.98;66.48
11971;BME280;6045;42.682;23.294;2022-10-19T02:56:54;95093.19;;;8.96;66.68
11971;BME280;6045;42.682;23.294;2022-10-19T02:59:21;95088.28;;;8.86;66.14
11971;BME280;6045;42.682;23.294;2022-10-19T03:01:48;95082.13;;;8.86;66.55
11971;BME280;6045;42.682;23.294;2022-10-19T03:04:15;95094.22;;;8.88;66.99
11971;BME280;6045;42.682;23.294;2022-10-19T03:06:42;95087.28;;;8.87;66.79
11971;BME280;6045;42.682;23.294;2022-10-19T03:09:11;95085.63;;;8.86;66.94
11971;BME280;6045;42.682;23.294;2022-10-19T03:11:38;95092.00;;;8.85;67.43
11971;BME280;6045;42.682;23.294;2022-10-19T03:14:04;95095.91;;;8.83;67.00
11971;BME280;6045;42.682;23.294;2022-10-19T03:16:31;95099.78;;;8.80;66.66
11971;BME280;6045;42.682;23.294;2022-10-19T03:18:58;95094.25;;;8.82;66.71
11971;BME280;6045;42.682;23.294;2022-10-19T03:21:25;95090.97;;;8.86;66.52
11971;BME280;6045;42.682;23.294;2022-10-19T03:23:52;95093.41;;;8.94;66.43
11971;BME280;6045;42.682;23.294;2022-10-19T03:26:20;95098.53;;;8.96;66.81
11971;BME280;6045;42.682;23.294;2022-10-19T03:28:47;95087.25;;;8.94;66.91
11971;BME280;6045;42.682;23.294;2022-10-19T03:31:14;95086.84;;;8.84;67.05
11971;BME280;6045;42.682;23.294;2022-10-19T03:33:40;95090.56;;;8.83;67.97
11971;BME280;6045;42.682;23.294;2022-10-19T03:36:15;95081.31;;;8.79;67.05
11971;BME280;6045;42.682;23.294;2022-10-19T03:38:42;95087.28;;;8.74;66.62
11971;BME280;6045;42.682;23.294;2022-10-19T03:41:10;95078.06;;;8.77;66.73
11971;BME280;6045;42.682;23.294;2022-10-19T03:43:38;95077.66;;;8.80;66.51
11971;BME280;6045;42.682;23.294;2022-10-19T03:46:06;95081.56;;;8.71;66.68
11971;BME280;6045;42.682;23.294;2022-10-19T03:48:33;95079.91;;;8.70;66.68
11971;BME280;6045;42.682;23.294;2022-10-19T03:51:00;95081.13;;;8.67;66.47
11971;BME280;6045;42.682;23.294;2022-10-19T03:53:27;95073.75;;;8.63;66.67
11971;BME280;6045;42.682;23.294;2022-10-19T03:56:00;95080.75;;;8.64;66.98
11971;BME280;6045;42.682;23.294;2022-10-19T03:58:27;95066.81;;;8.68;66.98
11971;BME280;6045;42.682;23.294;2022-10-19T04:01:09;95072.97;;;8.69;67.21
11971;BME280;6045;42.682;23.294;2022-10-19T04:03:39;95077.03;;;8.78;66.43
11971;BME280;6045;42.682;23.294;2022-10-19T04:06:18;95079.91;;;8.83;66.26
11971;BME280;6045;42.682;23.294;2022-10-19T04:08:51;95071.47;;;8.86;66.25
11971;BME280;6045;42.682;23.294;2022-10-19T04:11:21;95076.41;;;8.89;65.93
11971;BME280;6045;42.682;23.294;2022-10-19T04:13:51;95073.31;;;8.92;65.46
11971;BME280;6045;42.682;23.294;2022-10-19T04:16:21;95072.09;;;8.94;65.47
11971;BME280;6045;42.682;23.294;2022-10-19T04:18:49;95066.53;;;8.96;64.96
11971;BME280;6045;42.682;23.294;2022-10-19T04:21:19;95066.34;;;8.91;65.84
11971;BME280;6045;42.682;23.294;2022-10-19T04:23:47;95068.00;;;8.85;65.42
11971;BME280;6045;42.682;23.294;2022-10-19T04:26:15;95054.47;;;8.87;65.46
11971;BME280;6045;42.682;23.294;2022-10-19T04:28:42;95059.19;;;8.85;65.29
11971;BME280;6045;42.682;23.294;2022-10-19T04:31:09;95064.53;;;8.85;65.36
11971;BME280;6045;42.682;23.294;2022-10-19T04:33:38;95064.31;;;8.80;64.77
11971;BME280;6045;42.682;23.294;2022-10-19T04:36:06;95053.88;;;8.72;64.84
11971;BME280;6045;42.682;23.294;2022-10-19T04:38:33;95054.50;;;8.67;65.53
11971;BME280;6045;42.682;23.294;2022-10-19T04:41:01;95049.41;;;8.59;66.50
11971;BME280;6045;42.682;23.294;2022-10-19T04:43:28;95055.53;;;8.53;66.06
11971;BME280;6045;42.682;23.294;2022-10-19T04:45:55;95054.53;;;8.54;67.62
11971;BME280;6045;42.682;23.294;2022-10-19T04:48:22;95056.97;;;8.56;66.86
11971;BME280;6045;42.682;23.294;2022-10-19T04:50:53;95062.91;;;8.58;67.46
11971;BME280;6045;42.682;23.294;2022-10-19T04:53:20;95064.75;;;8.57;67.31
11971;BME280;6045;42.682;23.294;2022-10-19T04:55:47;95061.25;;;8.50;66.94
11971;BME280;6045;42.682;23.294;2022-10-19T04:58:13;95066.19;;;8.53;68.58
11971;BME280;6045;42.682;23.294;2022-10-19T05:00:40;95068.44;;;8.56;66.75
11971;BME280;6045;42.682;23.294;2022-10-19T05:03:07;95062.09;;;8.57;66.76
11971;BME280;6045;42.682;23.294;2022-10-19T05:05:35;95058.59;;;8.63;66.79
11971;BME280;6045;42.682;23.294;2022-10-19T05:08:03;95061.06;;;8.65;67.12
11971;BME280;6045;42.682;23.294;2022-10-19T05:10:30;95053.69;;;8.73;66.89
11971;BME280;6045;42.682;23.294;2022-10-19T05:12:58;95053.97;;;9.10;66.40
11971;BME280;6045;42.682;23.294;2022-10-19T05:15:25;95059.16;;;9.55;64.78
11971;BME280;6045;42.682;23.294;2022-10-19T05:17:53;95049.53;;;9.86;62.26
11971;BME280;6045;42.682;23.294;2022-10-19T05:20:19;95047.06;;;9.91;61.51
11971;BME280;6045;42.682;23.294;2022-10-19T05:22:46;95055.72;;;9.86;61.47
11971;BME280;6045;42.682;23.294;2022-10-19T05:25:15;95045.28;;;10.83;60.61
11971;BME280;6045;42.682;23.294;2022-10-19T05:27:41;95048.75;;;11.93;56.95
11971;BME280;6045;42.682;23.294;2022-10-19T05:30:09;95045.13;;;12.93;55.01
11971;BME280;6045;42.682;23.294;2022-10-19T05:32:37;95052.44;;;13.84;52.37
11971;BME280;6045;42.682;23.294;2022-10-19T05:35:04;95044.31;;;14.68;49.96
11971;BME280;6045;42.682;23.294;2022-10-19T05:37:31;95045.53;;;15.49;47.81
11971;BME280;6045;42.682;23.294;2022-10-19T05:39:57;95046.06;;;16.16;46.04
11971;BME280;6045;42.682;23.294;2022-10-19T05:42:27;95050.16;;;16.72;44.69
11971;BME280;6045;42.682;23.294;2022-10-19T05:44:53;95047.00;;;17.17;42.94
11971;BME280;6045;42.682;23.294;2022-10-19T05:47:20;95048.19;;;17.77;41.88
11971;BME280;6045;42.682;23.294;2022-10-19T05:49:56;95056.44;;;18.28;41.01
11971;BME280;6045;42.682;23.294;2022-10-19T05:52:23;95054.41;;;18.60;39.22
11971;BME280;6045;42.682;23.294;2022-10-19T05:54:50;95050.03;;;18.49;41.43
11971;BME280;6045;42.682;23.294;2022-10-19T05:57:18;95051.28;;;18.16;39.07
11971;BME280;6045;42.682;23.294;2022-10-19T05:59:46;95054.09;;;18.52;42.45
11971;BME280;6045;42.682;23.294;2022-10-19T06:02:16;95054.44;;;18.90;42.27
11971;BME280;6045;42.682;23.294;2022-10-19T06:04:43;95051.16;;;19.44;40.53
11971;BME280;6045;42.682;23.294;2022-10-19T06:07:09;95055.41;;;19.80;38.36
11971;BME280;6045;42.682;23.294;2022-10-19T06:09:36;95049.44;;;19.78;37.58
11971;BME280;6045;42.682;23.294;2022-10-19T06:12:05;95056.31;;;20.34;36.55
11971;BME280;6045;42.682;23.294;2022-10-19T06:14:32;95061.16;;;20.37;35.68
11971;BME280;6045;42.682;23.294;2022-10-19T06:17:00;95060.78;;;20.54;37.54
11971;BME280;6045;42.682;23.294;2022-10-19T06:19:33;95068.97;;;20.93;36.12
11971;BME280;6045;42.682;23.294;2022-10-19T06:22:00;95069.31;;;21.20;34.67
11971;BME280;6045;42.682;23.294;2022-10-19T06:24:27;95081.84;;;21.50;34.54
11971;BME280;6045;42.682;23.294;2022-10-19T06:27:00;95078.34;;;21.44;35.18
11971;BME280;6045;42.682;23.294;2022-10-19T06:29:41;95073.19;;;21.71;33.81
11971;BME280;6045;42.682;23.294;2022-10-19T06:32:09;95074.56;;;21.98;33.45
11971;BME280;6045;42.682;23.294;2022-10-19T06:34:36;95073.41;;;22.27;32.98
11971;BME280;6045;42.682;23.294;2022-10-19T06:37:03;95067.22;;;22.40;31.89
11971;BME280;6045;42.682;23.294;2022-10-19T06:39:33;95080.47;;;22.05;33.60
11971;BME280;6045;42.682;23.294;2022-10-19T06:42:21;95073.88;;;22.11;30.55
11971;BME280;6045;42.682;23.294;2022-10-19T06:44:48;95071.28;;;22.43;31.25
11971;BME280;6045;42.682;23.294;2022-10-19T06:47:16;95070.75;;;22.83;30.63
11971;BME280;6045;42.682;23.294;2022-10-19T06:50:10;95071.03;;;23.19;29.65
11971;BME280;6045;42.682;23.294;2022-10-19T06:52:43;95058.03;;;23.11;30.11
11971;BME280;6045;42.682;23.294;2022-10-19T06:55:13;95059.22;;;23.24;29.96
11971;BME280;6045;42.682;23.294;2022-10-19T06:57:48;95062.38;;;23.63;28.24
11971;BME280;6045;42.682;23.294;2022-10-19T07:00:15;95040.44;;;23.81;28.05
11971;BME280;6045;42.682;23.294;2022-10-19T07:02:46;95040.91;;;24.29;27.81
11971;BME280;6045;42.682;23.294;2022-10-19T07:05:16;95042.66;;;24.75;27.10
11971;BME280;6045;42.682;23.294;2022-10-19T07:07:43;95033.94;;;24.73;28.15
11971;BME280;6045;42.682;23.294;2022-10-19T07:10:10;95039.41;;;24.73;27.57
11971;BME280;6045;42.682;23.294;2022-10-19T07:12:37;95049.19;;;24.52;28.88
11971;BME280;6045;42.682;23.294;2022-10-19T07:15:05;95039.28;;;24.28;29.20
11971;BME280;6045;42.682;23.294;2022-10-19T07:17:32;95039.94;;;23.79;30.44
11971;BME280;6045;42.682;23.294;2022-10-19T07:20:09;95048.19;;;24.20;29.30
11971;BME280;6045;42.682;23.294;2022-10-19T07:22:36;95042.59;;;24.53;29.02
11971;BME280;6045;42.682;23.294;2022-10-19T07:25:03;95043.31;;;24.44;29.93
11971;BME280;6045;42.682;23.294;2022-10-19T07:27:30;95041.56;;;24.62;28.96
11971;BME280;6045;42.682;23.294;2022-10-19T07:29:57;95036.97;;;24.85;26.90
11971;BME280;6045;42.682;23.294;2022-10-19T07:32:23;95035.00;;;24.49;27.48
11971;BME280;6045;42.682;23.294;2022-10-19T07:34:50;95032.91;;;24.19;29.23
11971;BME280;6045;42.682;23.294;2022-10-19T07:37:18;95029.13;;;24.42;29.46
11971;BME280;6045;42.682;23.294;2022-10-19T07:39:45;95030.22;;;24.55;28.43
11971;BME280;6045;42.682;23.294;2022-10-19T07:42:12;95035.22;;;23.99;29.57
11971;BME280;6045;42.682;23.294;2022-10-19T07:44:39;95016.47;;;23.65;28.18
11971;BME280;6045;42.682;23.294;2022-10-19T07:47:06;95022.56;;;23.89;30.13
11971;BME280;6045;42.682;23.294;2022-10-19T07:49:33;95011.44;;;24.26;28.65
11971;BME280;6045;42.682;23.294;2022-10-19T07:51:59;95007.00;;;24.17;28.34
11971;BME280;6045;42.682;23.294;2022-10-19T07:54:28;95000.03;;;24.11;29.54
11971;BME280;6045;42.682;23.294;2022-10-19T07:56:54;95002.25;;;24.22;28.46
11971;BME280;6045;42.682;23.294;2022-10-19T07:59:21;95000.91;;;24.33;27.81
11971;BME280;6045;42.682;23.294;2022-10-19T08:01:48;95003.22;;;24.76;27.74
11971;BME280;6045;42.682;23.294;2022-10-19T08:04:15;94998.13;;;25.19;27.17
11971;BME280;6045;42.682;23.294;2022-10-19T08:06:43;94994.53;;;24.74;28.35
11971;BME280;6045;42.682;23.294;2022-10-19T08:09:10;95001.47;;;24.58;27.95
11971;BME280;6045;42.682;23.294;2022-10-19T08:11:38;94992.34;;;24.98;28.28
11971;BME280;6045;42.682;23.294;2022-10-19T08:14:05;94997.09;;;25.06;27.83
11971;BME280;6045;42.682;23.294;2022-10-19T08:16:34;94993.91;;;25.12;28.09
11971;BME280;6045;42.682;23.294;2022-10-19T08:19:05;94994.25;;;25.72;26.86
11971;BME280;6045;42.682;23.294;2022-10-19T08:21:34;94995.53;;;26.06;26.78
11971;BME280;6045;42.682;23.294;2022-10-19T08:24:02;94983.81;;;26.14;26.56
11971;BME280;6045;42.682;23.294;2022-10-19T08:26:29;94988.28;;;25.62;26.69
11971;BME280;6045;42.682;23.294;2022-10-19T08:29:01;94991.81;;;26.02;26.66
11971;BME280;6045;42.682;23.294;2022-10-19T08:31:28;94982.88;;;26.18;26.40
11971;BME280;6045;42.682;23.294;2022-10-19T08:33:55;94984.94;;;26.13;26.70
11971;BME280;6045;42.682;23.294;2022-10-19T08:36:23;94976.28;;;26.45;25.31
11971;BME280;6045;42.682;23.294;2022-10-19T08:38:50;94975.00;;;26.25;26.51
11971;BME280;6045;42.682;23.294;2022-10-19T08:41:22;94976.97;;;26.03;26.41
11971;BME280;6045;42.682;23.294;2022-10-19T08:44:17;94973.84;;;26.18;26.81
11971;BME280;6045;42.682;23.294;2022-10-19T08:46:55;94970.13;;;26.14;26.76
11971;BME280;6045;42.682;23.294;2022-10-19T08:49:26;94967.63;;;26.04;25.81
11971;BME280;6045;42.682;23.294;2022-10-19T08:51:57;94965.84;;;25.99;27.35
11971;BME280;6045;42.682;23.294;2022-10-19T08:54:31;94966.28;;;25.84;25.98
11971;BME280;6045;42.682;23.294;2022-10-19T08:57:10;94966.66;;;26.56;25.98
11971;BME280;6045;42.682;23.294;2022-10-19T08:59:45;94966.16;;;26.71;26.16
11971;BME280;6045;42.682;23.294;2022-10-19T09:02:18;94963.53;;;26.40;26.27
11971;BME280;6045;42.682;23.294;2022-10-19T09:04:51;94959.69;;;27.19;25.98
11971;BME280;6045;42.682;23.294;2022-10-19T09:07:23;94952.25;;;27.36;25.31
11971;BME280;6045;42.682;23.294;2022-10-19T09:09:55;94952.31;;;26.93;24.91
11971;BME280;6045;42.682;23.294;2022-10-19T09:12:32;94946.47;;;27.75;24.31
11971;BME280;6045;42.682;23.294;2022-10-19T09:15:05;94955.19;;;27.86;24.25
11971;BME280;6045;42.682;23.294;2022-10-19T09:17:33;94954.88;;;27.16;24.27
11971;BME280;6045;42.682;23.294;2022-10-19T09:20:12;94956.97;;;27.27;24.70
11971;BME280;6045;42.682;23.294;2022-10-19T09:22:41;94957.50;;;26.78;25.38
11971;BME280;6045;42.682;23.294;2022-10-19T09:25:13;94949.38;;;27.16;26.11
11971;BME280;6045;42.682;23.294;2022-10-19T09:27:42;94944.03;;;27.19;24.69
11971;BME280;6045;42.682;23.294;2022-10-19T09:30:16;94953.56;;;26.62;24.82
11971;BME280;6045;42.682;23.294;2022-10-19T09:32:44;94953.34;;;26.15;25.30
11971;BME280;6045;42.682;23.294;2022-10-19T09:35:23;94954.34;;;25.80;25.36
11971;BME280;6045;42.682;23.294;2022-10-19T09:37:52;94949.78;;;26.15;25.00
11971;BME280;6045;42.682;23.294;2022-10-19T09:40:21;94954.34;;;26.28;26.16
11971;BME280;6045;42.682;23.294;2022-10-19T09:42:48;94955.38;;;26.75;25.31
11971;BME280;6045;42.682;23.294;2022-10-19T09:45:30;94954.84;;;26.64;24.89
11971;BME280;6045;42.682;23.294;2022-10-19T09:47:59;94954.72;;;27.03;25.27
11971;BME280;6045;42.682;23.294;2022-10-19T09:50:28;94952.75;;;27.85;24.05
11971;BME280;6045;42.682;23.294;2022-10-19T09:52:56;94948.22;;;27.42;23.32
11971;BME280;6045;42.682;23.294;2022-10-19T09:55:27;94942.22;;;27.49;24.22
11971;BME280;6045;42.682;23.294;2022-10-19T09:58:03;94949.97;;;27.93;24.56
11971;BME280;6045;42.682;23.294;2022-10-19T10:00:35;94938.63;;;28.03;22.60
11971;BME280;6045;42.682;23.294;2022-10-19T10:03:02;94934.31;;;28.23;23.49
11971;BME280;6045;42.682;23.294;2022-10-19T10:05:32;94929.44;;;27.53;23.74
11971;BME280;6045;42.682;23.294;2022-10-19T10:07:59;94936.69;;;27.95;24.14
11971;BME280;6045;42.682;23.294;2022-10-19T10:10:28;94925.91;;;28.69;23.18
11971;BME280;6045;42.682;23.294;2022-10-19T10:12:57;94917.19;;;27.88;22.52
11971;BME280;6045;42.682;23.294;2022-10-19T10:15:26;94924.25;;;26.79;23.98
11971;BME280;6045;42.682;23.294;2022-10-19T10:17:56;94908.84;;;27.12;24.72
11971;BME280;6045;42.682;23.294;2022-10-19T10:20:25;94905.78;;;27.98;24.46
11971;BME280;6045;42.682;23.294;2022-10-19T10:22:56;94902.25;;;28.89;22.79
11971;BME280;6045;42.682;23.294;2022-10-19T10:25:26;94900.88;;;29.72;21.39
11971;BME280;6045;42.682;23.294;2022-10-19T10:27:57;94895.63;;;29.92;21.59
11971;BME280;6045;42.682;23.294;2022-10-19T10:30:25;94892.50;;;30.17;21.36
11971;BME280;6045;42.682;23.294;2022-10-19T10:32:56;94885.72;;;30.79;21.19
11971;BME280;6045;42.682;23.294;2022-10-19T10:35:26;94876.72;;;31.22;20.54
11971;BME280;6045;42.682;23.294;2022-10-19T10:38:03;94874.94;;;31.14;20.80
11971;BME280;6045;42.682;23.294;2022-10-19T10:40:31;94868.69;;;31.17;19.96
11971;BME280;6045;42.682;23.294;2022-10-19T10:43:02;94868.09;;;30.95;20.17
11971;BME280;6045;42.682;23.294;2022-10-19T10:45:32;94870.75;;;31.20;19.31
11971;BME280;6045;42.682;23.294;2022-10-19T10:48:14;94858.41;;;31.45;20.29
11971;BME280;6045;42.682;23.294;2022-10-19T10:50:43;94858.19;;;32.31;19.23
11971;BME280;6045;42.682;23.294;2022-10-19T10:53:30;94855.53;;;32.19;19.04
11971;BME280;6045;42.682;23.294;2022-10-19T10:55:57;94847.38;;;30.22;19.71
11971;BME280;6045;42.682;23.294;2022-10-19T10:58:32;94851.63;;;29.14;21.02
11971;BME280;6045;42.682;23.294;2022-10-19T11:01:03;94838.13;;;29.21;21.12
11971;BME280;6045;42.682;23.294;2022-10-19T11:03:34;94841.16;;;28.95;21.44
11971;BME280;6045;42.682;23.294;2022-10-19T11:06:03;94842.31;;;29.06;20.83
11971;BME280;6045;42.682;23.294;2022-10-19T11:08:33;94839.59;;;28.32;21.00
11971;BME280;6045;42.682;23.294;2022-10-19T11:11:05;94841.41;;;28.70;21.27
11971;BME280;6045;42.682;23.294;2022-10-19T11:13:42;94830.69;;;29.22;19.87
11971;BME280;6045;42.682;23.294;2022-10-19T11:16:12;94834.44;;;29.17;19.55
11971;BME280;6045;42.682;23.294;2022-10-19T11:18:45;94823.41;;;29.05;19.04
11971;BME280;6045;42.682;23.294;2022-10-19T11:21:16;94822.91;;;29.36;18.38
11971;BME280;6045;42.682;23.294;2022-10-19T11:23:52;94820.81;;;28.76;18.71
11971;BME280;6045;42.682;23.294;2022-10-19T11:26:32;94822.06;;;27.96;19.64
11971;BME280;6045;42.682;23.294;2022-10-19T11:29:14;94815.22;;;28.31;19.11
11971;BME280;6045;42.682;23.294;2022-10-19T11:31:47;94818.00;;;28.64;19.87
11971;BME280;6045;42.682;23.294;2022-10-19T11:34:30;94812.84;;;29.07;19.33
11971;BME280;6045;42.682;23.294;2022-10-19T11:37:05;94811.19;;;29.99;19.24
11971;BME280;6045;42.682;23.294;2022-10-19T11:39:45;94803.53;;;30.72;19.07
11971;BME280;6045;42.682;23.294;2022-10-19T11:42:23;94798.66;;;31.25;18.42
11971;BME280;6045;42.682;23.294;2022-10-19T11:45:04;94799.44;;;31.88;18.22
11971;BME280;6045;42.682;23.294;2022-10-19T11:47:52;94796.06;;;32.29;17.66
11971;BME280;6045;42.682;23.294;2022-10-19T11:50:34;94792.97;;;32.15;17.64
11971;BME280;6045;42.682;23.294;2022-10-19T11:53:12;94787.63;;;32.60;17.20
11971;BME280;6045;42.682;23.294;2022-10-19T11:55:45;94783.75;;;33.03;17.57
11971;BME280;6045;42.682;23.294;2022-10-19T11:58:42;94780.53;;;33.01;16.83
11971;BME280;6045;42.682;23.294;2022-10-19T12:01:22;94770.44;;;33.12;17.16
11971;BME280;6045;42.682;23.294;2022-10-19T12:07:08;94778.47;;;33.40;16.81
11971;BME280;6045;42.682;23.294;2022-10-19T12:09:44;94762.78;;;33.02;17.15
11971;BME280;6045;42.682;23.294;2022-10-19T12:12:25;94770.22;;;33.21;17.17
11971;BME280;6045;42.682;23.294;2022-10-19T12:15:02;94769.16;;;33.29;17.32
11971;BME280;6045;42.682;23.294;2022-10-19T12:17:34;94767.81;;;33.19;16.99
11971;BME280;6045;42.682;23.294;2022-10-19T12:20:06;94765.16;;;33.03;16.29
11971;BME280;6045;42.682;23.294;2022-10-19T12:22:36;94768.88;;;32.92;16.50
11971;BME280;6045;42.682;23.294;2022-10-19T12:25:04;94773.56;;;32.88;16.98
11971;BME280;6045;42.682;23.294;2022-10-19T12:27:34;94764.78;;;33.05;17.43
11971;BME280;6045;42.682;23.294;2022-10-19T12:30:06;94767.94;;;33.26;17.16
11971;BME280;6045;42.682;23.294;2022-10-19T12:32:40;94760.81;;;33.25;17.21
11971;BME280;6045;42.682;23.294;2022-10-19T12:35:20;94759.34;;;33.54;16.90
11971;BME280;6045;42.682;23.294;2022-10-19T12:37:56;94758.34;;;33.92;16.34
11971;BME280;6045;42.682;23.294;2022-10-19T12:40:31;94759.44;;;33.87;16.69
11971;BME280;6045;42.682;23.294;2022-10-19T12:43:09;94756.44;;;33.73;16.73
11971;BME280;6045;42.682;23.294;2022-10-19T12:45:40;94758.75;;;33.67;17.08
11971;BME280;6045;42.682;23.294;2022-10-19T12:48:18;94753.75;;;33.31;16.27
11971;BME280;6045;42.682;23.294;2022-10-19T12:51:09;94758.31;;;33.43;16.69
11971;BME280;6045;42.682;23.294;2022-10-19T12:53:40;94749.53;;;33.37;16.36
11971;BME280;6045;42.682;23.294;2022-10-19T12:56:12;94755.06;;;33.60;17.25
11971;BME280;6045;42.682;23.294;2022-10-19T12:58:47;94750.06;;;33.95;16.58
11971;BME280;6045;42.682;23.294;2022-10-19T13:01:18;94755.06;;;33.37;16.15
11971;BME280;6045;42.682;23.294;2022-10-19T13:03:46;94749.50;;;32.73;17.12
11971;BME280;6045;42.682;23.294;2022-10-19T13:06:17;94746.72;;;32.92;16.97
11971;BME280;6045;42.682;23.294;2022-10-19T13:08:54;94753.66;;;32.25;17.11
11971;BME280;6045;42.682;23.294;2022-10-19T13:11:21;94742.94;;;31.54;18.36
11971;BME280;6045;42.682;23.294;2022-10-19T13:14:06;94742.81;;;31.66;18.74
11971;BME280;6045;42.682;23.294;2022-10-19T13:16:58;94742.50;;;32.02;18.29
11971;BME280;6045;42.682;23.294;2022-10-19T13:19:25;94734.72;;;31.92;18.33
11971;BME280;6045;42.682;23.294;2022-10-19T13:31:23;94734.84;;;30.98;18.80
11971;BME280;6045;42.682;23.294;2022-10-19T13:33:52;94732.34;;;30.93;18.90
11971;BME280;6045;42.682;23.294;2022-10-19T13:36:20;94730.78;;;30.37;19.19
11971;BME280;6045;42.682;23.294;2022-10-19T13:41:49;94731.88;;;30.08;20.25